sensor_id;sensor_type;location;lat;lon;timestamp;P1;P4;P2;P0;N10;N4;N25;N1;N05;TS
67700;SPS30;55380;54.156;18.708;2023-03-03T00:00:00;18.9;;17.2;14.7;;;;;;
67700;SPS30;55380;54.156;18.708;2023-03-03T00:02:00;18.9;;17.3;14.8;;;;;;
67700;SPS30;55380;54.156;18.708;2023-03-03T00:04:00;18.7;;17.1;14.7;;;;;;
67700;SPS30;55380;54.156;18.708;2023-03-03T00:06:01;18.7;;17.3;14.9;;;;;;
67700;SPS30;55380;54.156;18.708;2023-03-03T00:08:00;17.6;;16.6;14.7;;;;;;
67700;SPS30;55380;54.156;18.708;2023-03-03T00:10:00;19.6;;18.0;15.4;;;;;;
67700;SPS30;55380;54.156;18.708;2023-03-03T00:12:00;19.1;;17.8;15.5;;;;;;
67700;SPS30;55380;54.156;18.708;2023-03-03T00:14:00;18.2;;17.0;14.8;;;;;;
67700;SPS30;55380;54.156;18.708;2023-03-03T00:16:10;18.5;;16.9;14.5;;;;;;
67700;SPS30;55380;54.156;18.708;2023-03-03T00:18:00;17.6;;16.3;14.1;;;;;;
67700;SPS30;55380;54.156;18.708;2023-03-03T00:20:01;16.2;;15.2;13.5;;;;;;
67700;SPS30;55380;54.156;18.708;2023-03-03T00:22:00;16.8;;15.4;13.2;;;;;;
67700;SPS30;55380;54.156;18.708;2023-03-03T00:24:10;16.6;;15.6;13.7;;;;;;
67700;SPS30;55380;54.156;18.708;2023-03-03T00:26:01;17.9;;16.2;13.7;;;;;;
67700;SPS30;55380;54.156;18.708;2023-03-03T00:28:00;16.2;;15.2;13.3;;;;;;
67700;SPS30;55380;54.156;18.708;2023-03-03T00:30:00;15.7;;14.7;12.9;;;;;;
67700;SPS30;55380;54.156;18.708;2023-03-03T00:32:09;16.4;;15.1;13.0;;;;;;
67700;SPS30;55380;54.156;18.708;2023-03-03T00:34:02;18.2;;16.8;14.5;;;;;;
67700;SPS30;55380;54.156;18.708;2023-03-03T00:36:09;19.4;;17.7;15.1;;;;;;
67700;SPS30;55380;54.156;18.708;2023-03-03T00:38:01;17.9;;16.4;14.0;;;;;;
67700;SPS30;55380;54.156;18.708;2023-03-03T00:40:07;15.5;;14.6;12.9;;;;;;
67700;SPS30;55380;54.156;18.708;2023-03-03T00:42:00;14.5;;13.8;12.4;;;;;;
67700;SPS30;55380;54.156;18.708;2023-03-03T00:44:00;15.8;;14.7;12.9;;;;;;
67700;SPS30;55380;54.156;18.708;2023-03-03T00:46:00;14.7;;13.8;12.2;;;;;;
67700;SPS30;55380;54.156;18.708;2023-03-03T00:48:06;15.4;;14.4;12.6;;;;;;
67700;SPS30;55380;54.156;18.708;2023-03-03T00:52:00;15.4;;14.8;13.4;;;;;;
67700;SPS30;55380;54.156;18.708;2023-03-03T00:54:00;14.5;;14.0;12.7;;;;;;
67700;SPS30;55380;54.156;18.708;2023-03-03T00:56:00;13.4;;12.9;11.7;;;;;;
67700;SPS30;55380;54.156;18.708;2023-03-03T00:58:00;13.6;;13.1;11.9;;;;;;
67700;SPS30;55380;54.156;18.708;2023-03-03T01:00:00;12.5;;12.1;11.1;;;;;;
67700;SPS30;55380;54.156;18.708;2023-03-03T01:02:00;13.6;;12.8;11.3;;;;;;
67700;SPS30;55380;54.156;18.708;2023-03-03T01:04:00;13.0;;12.0;10.5;;;;;;
67700;SPS30;55380;54.156;18.708;2023-03-03T01:06:00;12.5;;11.8;10.4;;;;;;
67700;SPS30;55380;54.156;18.708;2023-03-03T01:08:00;11.3;;11.0;10.0;;;;;;
67700;SPS30;55380;54.156;18.708;2023-03-03T01:10:00;12.4;;11.8;10.7;;;;;;
67700;SPS30;55380;54.156;18.708;2023-03-03T01:12:00;12.7;;12.0;10.6;;;;;;
67700;SPS30;55380;54.156;18.708;2023-03-03T01:14:00;12.7;;12.0;10.6;;;;;;
67700;SPS30;55380;54.156;18.708;2023-03-03T01:16:00;11.8;;11.2;10.1;;;;;;
67700;SPS30;55380;54.156;18.708;2023-03-03T01:18:00;11.7;;11.0;9.8;;;;;;
67700;SPS30;55380;54.156;18.708;2023-03-03T01:20:00;12.1;;11.3;9.8;;;;;;
67700;SPS30;55380;54.156;18.708;2023-03-03T01:22:00;10.9;;10.4;9.3;;;;;;
67700;SPS30;55380;54.156;18.708;2023-03-03T01:24:00;11.2;;10.4;9.2;;;;;;
67700;SPS30;55380;54.156;18.708;2023-03-03T01:26:00;12.0;;11.2;9.9;;;;;;
67700;SPS30;55380;54.156;18.708;2023-03-03T01:28:00;12.0;;11.2;9.8;;;;;;
67700;SPS30;55380;54.156;18.708;2023-03-03T01:30:00;11.1;;10.5;9.3;;;;;;
67700;SPS30;55380;54.156;18.708;2023-03-03T01:32:00;11.7;;11.0;9.7;;;;;;
67700;SPS30;55380;54.156;18.708;2023-03-03T01:34:00;11.2;;10.5;9.2;;;;;;
67700;SPS30;55380;54.156;18.708;2023-03-03T01:36:00;10.9;;10.5;9.5;;;;;;
67700;SPS30;55380;54.156;18.708;2023-03-03T01:38:00;11.6;;10.8;9.4;;;;;;
67700;SPS30;55380;54.156;18.708;2023-03-03T01:40:00;12.1;;11.1;9.6;;;;;;
67700;SPS30;55380;54.156;18.708;2023-03-03T01:42:02;10.6;;10.0;9.0;;;;;;
67700;SPS30;55380;54.156;18.708;2023-03-03T01:44:00;11.3;;10.5;9.2;;;;;;
67700;SPS30;55380;54.156;18.708;2023-03-03T01:48:01;10.5;;10.0;8.9;;;;;;
67700;SPS30;55380;54.156;18.708;2023-03-03T01:50:01;10.6;;10.3;9.3;;;;;;
67700;SPS30;55380;54.156;18.708;2023-03-03T01:52:01;11.1;;10.6;9.5;;;;;;
67700;SPS30;55380;54.156;18.708;2023-03-03T01:54:01;11.1;;10.4;9.1;;;;;;
67700;SPS30;55380;54.156;18.708;2023-03-03T01:56:00;10.6;;9.9;8.8;;;;;;
67700;SPS30;55380;54.156;18.708;2023-03-03T01:58:01;10.0;;9.5;8.5;;;;;;
67700;SPS30;55380;54.156;18.708;2023-03-03T02:00:00;9.8;;9.4;8.5;;;;;;
67700;SPS30;55380;54.156;18.708;2023-03-03T02:02:00;9.6;;9.4;8.6;;;;;;
67700;SPS30;55380;54.156;18.708;2023-03-03T02:04:00;10.5;;10.0;8.9;;;;;;
67700;SPS30;55380;54.156;18.708;2023-03-03T02:06:02;9.7;;9.2;8.2;;;;;;
67700;SPS30;55380;54.156;18.708;2023-03-03T02:08:00;8.4;;8.0;7.3;;;;;;
67700;SPS30;55380;54.156;18.708;2023-03-03T02:10:03;7.8;;7.7;7.2;;;;;;
67700;SPS30;55380;54.156;18.708;2023-03-03T02:12:02;7.9;;7.7;7.1;;;;;;
67700;SPS30;55380;54.156;18.708;2023-03-03T02:14:00;7.4;;7.2;6.6;;;;;;
67700;SPS30;55380;54.156;18.708;2023-03-03T02:16:00;7.6;;7.4;6.8;;;;;;
67700;SPS30;55380;54.156;18.708;2023-03-03T02:18:01;7.7;;7.6;7.0;;;;;;
67700;SPS30;55380;54.156;18.708;2023-03-03T02:20:02;7.3;;7.1;6.5;;;;;;
67700;SPS30;55380;54.156;18.708;2023-03-03T02:22:00;7.5;;7.4;6.8;;;;;;
67700;SPS30;55380;54.156;18.708;2023-03-03T02:24:02;7.4;;7.2;6.7;;;;;;
67700;SPS30;55380;54.156;18.708;2023-03-03T02:26:04;7.0;;6.9;6.4;;;;;;
67700;SPS30;55380;54.156;18.708;2023-03-03T02:28:00;6.9;;6.8;6.3;;;;;;
67700;SPS30;55380;54.156;18.708;2023-03-03T02:30:10;7.2;;7.1;6.6;;;;;;
67700;SPS30;55380;54.156;18.708;2023-03-03T02:32:00;7.1;;7.0;6.5;;;;;;
67700;SPS30;55380;54.156;18.708;2023-03-03T02:34:00;7.4;;7.3;6.8;;;;;;
67700;SPS30;55380;54.156;18.708;2023-03-03T02:36:00;7.3;;7.1;6.5;;;;;;
67700;SPS30;55380;54.156;18.708;2023-03-03T02:38:05;6.5;;6.4;6.0;;;;;;
67700;SPS30;55380;54.156;18.708;2023-03-03T02:40:00;7.1;;7.0;6.5;;;;;;
67700;SPS30;55380;54.156;18.708;2023-03-03T02:42:01;6.6;;6.5;6.1;;;;;;
67700;SPS30;55380;54.156;18.708;2023-03-03T02:44:01;6.7;;6.6;6.1;;;;;;
67700;SPS30;55380;54.156;18.708;2023-03-03T02:46:00;6.9;;6.8;6.2;;;;;;
67700;SPS30;55380;54.156;18.708;2023-03-03T02:48:00;6.5;;6.4;6.0;;;;;;
67700;SPS30;55380;54.156;18.708;2023-03-03T02:50:00;6.8;;6.7;6.3;;;;;;
67700;SPS30;55380;54.156;18.708;2023-03-03T02:52:01;6.7;;6.6;6.2;;;;;;
67700;SPS30;55380;54.156;18.708;2023-03-03T02:54:00;7.1;;7.0;6.5;;;;;;
67700;SPS30;55380;54.156;18.708;2023-03-03T02:56:00;7.5;;7.3;6.8;;;;;;
67700;SPS30;55380;54.156;18.708;2023-03-03T02:58:00;7.6;;7.5;7.0;;;;;;
67700;SPS30;55380;54.156;18.708;2023-03-03T03:00:00;7.0;;6.9;6.5;;;;;;
67700;SPS30;55380;54.156;18.708;2023-03-03T03:02:00;6.8;;6.7;6.2;;;;;;
67700;SPS30;55380;54.156;18.708;2023-03-03T03:04:00;7.2;;7.1;6.6;;;;;;
67700;SPS30;55380;54.156;18.708;2023-03-03T03:06:00;7.5;;7.2;6.6;;;;;;
67700;SPS30;55380;54.156;18.708;2023-03-03T03:08:00;7.5;;7.5;7.0;;;;;;
67700;SPS30;55380;54.156;18.708;2023-03-03T03:10:00;7.4;;7.3;6.8;;;;;;
67700;SPS30;55380;54.156;18.708;2023-03-03T03:12:00;7.6;;7.5;7.0;;;;;;
67700;SPS30;55380;54.156;18.708;2023-03-03T03:14:00;7.9;;7.8;7.4;;;;;;
67700;SPS30;55380;54.156;18.708;2023-03-03T03:16:00;6.9;;6.9;6.4;;;;;;
67700;SPS30;55380;54.156;18.708;2023-03-03T03:18:00;7.1;;7.0;6.6;;;;;;
67700;SPS30;55380;54.156;18.708;2023-03-03T03:20:00;7.5;;7.4;6.8;;;;;;
67700;SPS30;55380;54.156;18.708;2023-03-03T03:22:00;7.3;;7.2;6.7;;;;;;
67700;SPS30;55380;54.156;18.708;2023-03-03T03:24:00;7.6;;7.5;6.9;;;;;;
67700;SPS30;55380;54.156;18.708;2023-03-03T03:26:00;7.5;;7.4;7.0;;;;;;
67700;SPS30;55380;54.156;18.708;2023-03-03T03:28:00;8.0;;7.9;7.5;;;;;;
67700;SPS30;55380;54.156;18.708;2023-03-03T03:30:00;7.2;;7.1;6.7;;;;;;
67700;SPS30;55380;54.156;18.708;2023-03-03T03:32:00;8.4;;8.2;7.5;;;;;;
67700;SPS30;55380;54.156;18.708;2023-03-03T03:34:00;8.2;;8.0;7.5;;;;;;
67700;SPS30;55380;54.156;18.708;2023-03-03T03:36:00;7.6;;7.5;6.9;;;;;;
67700;SPS30;55380;54.156;18.708;2023-03-03T03:38:00;7.8;;7.6;7.1;;;;;;
67700;SPS30;55380;54.156;18.708;2023-03-03T03:40:00;7.8;;7.7;7.2;;;;;;
67700;SPS30;55380;54.156;18.708;2023-03-03T03:42:00;7.7;;7.6;7.0;;;;;;
67700;SPS30;55380;54.156;18.708;2023-03-03T03:44:00;7.8;;7.7;7.2;;;;;;
67700;SPS30;55380;54.156;18.708;2023-03-03T03:46:00;7.8;;7.7;7.2;;;;;;
67700;SPS30;55380;54.156;18.708;2023-03-03T03:48:01;7.6;;7.5;7.0;;;;;;
67700;SPS30;55380;54.156;18.708;2023-03-03T03:50:00;7.6;;7.4;6.9;;;;;;
67700;SPS30;55380;54.156;18.708;2023-03-03T03:52:00;7.7;;7.5;6.8;;;;;;
67700;SPS30;55380;54.156;18.708;2023-03-03T03:54:00;7.6;;7.4;6.8;;;;;;
67700;SPS30;55380;54.156;18.708;2023-03-03T03:56:00;7.5;;7.3;6.8;;;;;;
67700;SPS30;55380;54.156;18.708;2023-03-03T03:58:00;7.8;;7.7;7.2;;;;;;
67700;SPS30;55380;54.156;18.708;2023-03-03T04:00:00;7.9;;7.7;7.1;;;;;;
67700;SPS30;55380;54.156;18.708;2023-03-03T04:02:00;8.2;;7.9;7.2;;;;;;
67700;SPS30;55380;54.156;18.708;2023-03-03T04:04:00;7.2;;7.1;6.5;;;;;;
67700;SPS30;55380;54.156;18.708;2023-03-03T04:06:00;7.3;;7.2;6.6;;;;;;
67700;SPS30;55380;54.156;18.708;2023-03-03T04:08:00;7.1;;7.0;6.5;;;;;;
67700;SPS30;55380;54.156;18.708;2023-03-03T04:10:00;7.3;;7.2;6.7;;;;;;
67700;SPS30;55380;54.156;18.708;2023-03-03T04:12:00;7.2;;7.1;6.5;;;;;;
67700;SPS30;55380;54.156;18.708;2023-03-03T04:14:00;7.0;;6.8;6.2;;;;;;
67700;SPS30;55380;54.156;18.708;2023-03-03T04:16:00;7.1;;6.9;6.3;;;;;;
67700;SPS30;55380;54.156;18.708;2023-03-03T04:18:00;6.7;;6.6;6.1;;;;;;
67700;SPS30;55380;54.156;18.708;2023-03-03T04:20:00;6.6;;6.4;5.9;;;;;;
67700;SPS30;55380;54.156;18.708;2023-03-03T04:22:00;6.8;;6.6;6.1;;;;;;
67700;SPS30;55380;54.156;18.708;2023-03-03T04:24:00;6.4;;6.3;5.9;;;;;;
67700;SPS30;55380;54.156;18.708;2023-03-03T04:26:00;5.9;;5.8;5.4;;;;;;
67700;SPS30;55380;54.156;18.708;2023-03-03T04:28:00;6.0;;5.9;5.5;;;;;;
67700;SPS30;55380;54.156;18.708;2023-03-03T04:30:01;6.2;;6.1;5.7;;;;;;
67700;SPS30;55380;54.156;18.708;2023-03-03T04:32:00;6.5;;6.3;5.7;;;;;;
67700;SPS30;55380;54.156;18.708;2023-03-03T04:34:00;6.6;;6.3;5.7;;;;;;
67700;SPS30;55380;54.156;18.708;2023-03-03T04:36:00;6.4;;6.2;5.8;;;;;;
67700;SPS30;55380;54.156;18.708;2023-03-03T04:38:00;6.1;;6.1;5.7;;;;;;
67700;SPS30;55380;54.156;18.708;2023-03-03T04:40:00;6.4;;6.2;5.7;;;;;;
67700;SPS30;55380;54.156;18.708;2023-03-03T04:42:00;6.2;;6.0;5.5;;;;;;
67700;SPS30;55380;54.156;18.708;2023-03-03T04:44:00;6.6;;6.4;5.9;;;;;;
67700;SPS30;55380;54.156;18.708;2023-03-03T04:46:00;6.6;;6.4;5.8;;;;;;
67700;SPS30;55380;54.156;18.708;2023-03-03T04:48:00;6.7;;6.5;6.0;;;;;;
67700;SPS30;55380;54.156;18.708;2023-03-03T04:50:00;6.4;;6.2;5.8;;;;;;
67700;SPS30;55380;54.156;18.708;2023-03-03T04:52:00;6.7;;6.5;5.9;;;;;;
67700;SPS30;55380;54.156;18.708;2023-03-03T04:54:00;6.9;;6.7;6.1;;;;;;
67700;SPS30;55380;54.156;18.708;2023-03-03T04:56:00;6.4;;6.2;5.8;;;;;;
67700;SPS30;55380;54.156;18.708;2023-03-03T04:58:00;6.5;;6.4;6.0;;;;;;
67700;SPS30;55380;54.156;18.708;2023-03-03T05:00:00;6.7;;6.6;6.2;;;;;;
67700;SPS30;55380;54.156;18.708;2023-03-03T05:02:00;7.1;;6.8;6.2;;;;;;
67700;SPS30;55380;54.156;18.708;2023-03-03T05:04:00;6.8;;6.5;5.8;;;;;;
67700;SPS30;55380;54.156;18.708;2023-03-03T05:06:00;7.2;;6.9;6.3;;;;;;
67700;SPS30;55380;54.156;18.708;2023-03-03T05:08:00;7.2;;6.9;6.2;;;;;;
67700;SPS30;55380;54.156;18.708;2023-03-03T05:10:00;6.7;;6.5;6.1;;;;;;
67700;SPS30;55380;54.156;18.708;2023-03-03T05:12:00;7.3;;7.0;6.4;;;;;;
67700;SPS30;55380;54.156;18.708;2023-03-03T05:14:00;7.4;;7.1;6.5;;;;;;
67700;SPS30;55380;54.156;18.708;2023-03-03T05:16:00;7.5;;7.2;6.4;;;;;;
67700;SPS30;55380;54.156;18.708;2023-03-03T05:18:00;7.6;;7.3;6.7;;;;;;
67700;SPS30;55380;54.156;18.708;2023-03-03T05:20:00;7.5;;7.2;6.6;;;;;;
67700;SPS30;55380;54.156;18.708;2023-03-03T05:22:00;7.6;;7.2;6.4;;;;;;
67700;SPS30;55380;54.156;18.708;2023-03-03T05:24:00;7.6;;7.3;6.6;;;;;;
67700;SPS30;55380;54.156;18.708;2023-03-03T05:26:00;7.5;;7.2;6.6;;;;;;
67700;SPS30;55380;54.156;18.708;2023-03-03T05:28:00;7.1;;6.9;6.4;;;;;;
67700;SPS30;55380;54.156;18.708;2023-03-03T05:30:00;7.6;;7.4;6.7;;;;;;
67700;SPS30;55380;54.156;18.708;2023-03-03T05:32:00;7.4;;7.2;6.6;;;;;;
67700;SPS30;55380;54.156;18.708;2023-03-03T05:34:00;7.3;;7.0;6.4;;;;;;
67700;SPS30;55380;54.156;18.708;2023-03-03T05:36:00;7.9;;7.6;6.8;;;;;;
67700;SPS30;55380;54.156;18.708;2023-03-03T05:38:00;8.4;;7.9;7.0;;;;;;
67700;SPS30;55380;54.156;18.708;2023-03-03T05:40:00;8.4;;8.1;7.4;;;;;;
67700;SPS30;55380;54.156;18.708;2023-03-03T05:42:00;8.3;;8.0;7.2;;;;;;
67700;SPS30;55380;54.156;18.708;2023-03-03T05:44:00;8.3;;7.9;7.0;;;;;;
67700;SPS30;55380;54.156;18.708;2023-03-03T05:46:00;7.8;;7.4;6.7;;;;;;
67700;SPS30;55380;54.156;18.708;2023-03-03T05:48:00;8.6;;8.1;7.1;;;;;;
67700;SPS30;55380;54.156;18.708;2023-03-03T05:50:00;8.0;;7.5;6.7;;;;;;
67700;SPS30;55380;54.156;18.708;2023-03-03T05:52:00;8.2;;7.9;7.3;;;;;;
67700;SPS30;55380;54.156;18.708;2023-03-03T05:54:00;8.9;;8.6;7.7;;;;;;
67700;SPS30;55380;54.156;18.708;2023-03-03T05:56:00;8.7;;8.3;7.5;;;;;;
67700;SPS30;55380;54.156;18.708;2023-03-03T05:58:01;8.7;;8.3;7.4;;;;;;
67700;SPS30;55380;54.156;18.708;2023-03-03T06:00:00;9.2;;8.8;7.9;;;;;;
67700;SPS30;55380;54.156;18.708;2023-03-03T06:02:00;8.1;;7.7;7.0;;;;;;
67700;SPS30;55380;54.156;18.708;2023-03-03T06:04:00;9.1;;8.6;7.6;;;;;;
67700;SPS30;55380;54.156;18.708;2023-03-03T06:06:00;9.5;;9.0;8.1;;;;;;
67700;SPS30;55380;54.156;18.708;2023-03-03T06:08:00;9.1;;8.7;7.9;;;;;;
67700;SPS30;55380;54.156;18.708;2023-03-03T06:10:00;8.5;;8.3;7.7;;;;;;
67700;SPS30;55380;54.156;18.708;2023-03-03T06:12:00;8.8;;8.6;7.9;;;;;;
67700;SPS30;55380;54.156;18.708;2023-03-03T06:14:00;9.2;;8.9;8.1;;;;;;
67700;SPS30;55380;54.156;18.708;2023-03-03T06:16:00;9.4;;9.1;8.3;;;;;;
67700;SPS30;55380;54.156;18.708;2023-03-03T06:18:00;8.4;;8.1;7.4;;;;;;
67700;SPS30;55380;54.156;18.708;2023-03-03T06:20:00;9.0;;8.6;7.7;;;;;;
67700;SPS30;55380;54.156;18.708;2023-03-03T06:22:00;9.2;;8.9;8.0;;;;;;
67700;SPS30;55380;54.156;18.708;2023-03-03T06:24:00;10.0;;9.4;8.4;;;;;;
67700;SPS30;55380;54.156;18.708;2023-03-03T06:26:00;9.9;;9.6;8.7;;;;;;
67700;SPS30;55380;54.156;18.708;2023-03-03T06:28:00;8.4;;8.1;7.3;;;;;;
67700;SPS30;55380;54.156;18.708;2023-03-03T06:30:00;9.9;;9.2;8.1;;;;;;
67700;SPS30;55380;54.156;18.708;2023-03-03T06:32:00;9.3;;8.9;8.0;;;;;;
67700;SPS30;55380;54.156;18.708;2023-03-03T06:34:00;9.1;;8.8;8.0;;;;;;
67700;SPS30;55380;54.156;18.708;2023-03-03T06:36:00;8.5;;8.2;7.6;;;;;;
67700;SPS30;55380;54.156;18.708;2023-03-03T06:38:00;9.1;;8.7;7.8;;;;;;
67700;SPS30;55380;54.156;18.708;2023-03-03T06:40:00;9.5;;9.3;8.6;;;;;;
67700;SPS30;55380;54.156;18.708;2023-03-03T06:42:00;8.7;;8.6;7.9;;;;;;
67700;SPS30;55380;54.156;18.708;2023-03-03T06:44:00;9.6;;9.2;8.4;;;;;;
67700;SPS30;55380;54.156;18.708;2023-03-03T06:46:00;9.5;;9.1;8.2;;;;;;
67700;SPS30;55380;54.156;18.708;2023-03-03T06:48:00;9.7;;9.3;8.3;;;;;;
67700;SPS30;55380;54.156;18.708;2023-03-03T06:50:00;9.0;;8.8;8.0;;;;;;
67700;SPS30;55380;54.156;18.708;2023-03-03T06:52:01;9.4;;9.1;8.3;;;;;;
67700;SPS30;55380;54.156;18.708;2023-03-03T06:54:01;9.0;;8.7;7.9;;;;;;
67700;SPS30;55380;54.156;18.708;2023-03-03T06:56:00;10.3;;10.0;9.2;;;;;;
67700;SPS30;55380;54.156;18.708;2023-03-03T06:58:00;10.1;;9.8;8.9;;;;;;
67700;SPS30;55380;54.156;18.708;2023-03-03T07:00:05;10.3;;9.9;8.9;;;;;;
67700;SPS30;55380;54.156;18.708;2023-03-03T07:02:00;9.8;;9.6;8.9;;;;;;
67700;SPS30;55380;54.156;18.708;2023-03-03T07:04:00;9.2;;9.1;8.5;;;;;;
67700;SPS30;55380;54.156;18.708;2023-03-03T07:06:01;10.0;;9.8;9.0;;;;;;
67700;SPS30;55380;54.156;18.708;2023-03-03T07:08:00;10.1;;9.7;8.8;;;;;;
67700;SPS30;55380;54.156;18.708;2023-03-03T07:10:00;9.8;;9.5;8.6;;;;;;
67700;SPS30;55380;54.156;18.708;2023-03-03T07:12:01;9.8;;9.5;8.8;;;;;;
67700;SPS30;55380;54.156;18.708;2023-03-03T07:14:00;9.7;;9.5;8.8;;;;;;
67700;SPS30;55380;54.156;18.708;2023-03-03T07:16:02;10.0;;9.8;9.1;;;;;;
67700;SPS30;55380;54.156;18.708;2023-03-03T07:18:00;9.5;;9.4;8.8;;;;;;
67700;SPS30;55380;54.156;18.708;2023-03-03T07:20:00;9.3;;9.2;8.7;;;;;;
67700;SPS30;55380;54.156;18.708;2023-03-03T07:22:01;10.1;;10.0;9.4;;;;;;
67700;SPS30;55380;54.156;18.708;2023-03-03T07:24:01;10.0;;9.8;9.1;;;;;;
67700;SPS30;55380;54.156;18.708;2023-03-03T07:26:00;10.4;;10.1;9.2;;;;;;
67700;SPS30;55380;54.156;18.708;2023-03-03T07:28:06;10.1;;9.8;8.9;;;;;;
67700;SPS30;55380;54.156;18.708;2023-03-03T07:30:08;9.0;;8.8;8.1;;;;;;
67700;SPS30;55380;54.156;18.708;2023-03-03T07:32:00;9.2;;9.1;8.5;;;;;;
67700;SPS30;55380;54.156;18.708;2023-03-03T07:34:01;9.3;;9.1;8.4;;;;;;
67700;SPS30;55380;54.156;18.708;2023-03-03T07:36:01;9.6;;9.5;8.8;;;;;;
67700;SPS30;55380;54.156;18.708;2023-03-03T07:38:00;8.6;;8.5;7.9;;;;;;
67700;SPS30;55380;54.156;18.708;2023-03-03T07:40:00;8.7;;8.6;8.0;;;;;;
67700;SPS30;55380;54.156;18.708;2023-03-03T07:42:06;8.6;;8.5;8.0;;;;;;
67700;SPS30;55380;54.156;18.708;2023-03-03T07:44:02;8.4;;8.4;7.9;;;;;;
67700;SPS30;55380;54.156;18.708;2023-03-03T07:46:02;8.8;;8.8;8.2;;;;;;
67700;SPS30;55380;54.156;18.708;2023-03-03T07:48:03;8.1;;8.0;7.6;;;;;;
67700;SPS30;55380;54.156;18.708;2023-03-03T07:50:07;8.7;;8.6;8.0;;;;;;
67700;SPS30;55380;54.156;18.708;2023-03-03T07:52:00;8.8;;8.7;8.1;;;;;;
67700;SPS30;55380;54.156;18.708;2023-03-03T07:54:10;8.1;;8.0;7.5;;;;;;
67700;SPS30;55380;54.156;18.708;2023-03-03T07:56:00;7.7;;7.7;7.3;;;;;;
67700;SPS30;55380;54.156;18.708;2023-03-03T07:58:13;7.8;;7.8;7.4;;;;;;
67700;SPS30;55380;54.156;18.708;2023-03-03T08:00:03;7.8;;7.8;7.4;;;;;;
67700;SPS30;55380;54.156;18.708;2023-03-03T08:02:00;7.7;;7.7;7.3;;;;;;
67700;SPS30;55380;54.156;18.708;2023-03-03T08:04:00;8.0;;8.0;7.6;;;;;;
67700;SPS30;55380;54.156;18.708;2023-03-03T08:06:01;8.2;;8.2;7.7;;;;;;
67700;SPS30;55380;54.156;18.708;2023-03-03T08:08:09;8.1;;8.1;7.6;;;;;;
67700;SPS30;55380;54.156;18.708;2023-03-03T08:10:00;7.9;;7.9;7.5;;;;;;
67700;SPS30;55380;54.156;18.708;2023-03-03T08:12:16;8.1;;8.0;7.6;;;;;;
67700;SPS30;55380;54.156;18.708;2023-03-03T08:14:00;8.2;;8.2;7.7;;;;;;
67700;SPS30;55380;54.156;18.708;2023-03-03T08:16:01;7.5;;7.5;7.0;;;;;;
67700;SPS30;55380;54.156;18.708;2023-03-03T08:18:00;7.4;;7.3;6.9;;;;;;
67700;SPS30;55380;54.156;18.708;2023-03-03T08:20:00;7.8;;7.7;7.2;;;;;;
67700;SPS30;55380;54.156;18.708;2023-03-03T08:22:01;7.4;;7.3;6.8;;;;;;
67700;SPS30;55380;54.156;18.708;2023-03-03T08:24:00;7.8;;7.7;7.2;;;;;;
67700;SPS30;55380;54.156;18.708;2023-03-03T08:26:00;7.8;;7.7;7.2;;;;;;
67700;SPS30;55380;54.156;18.708;2023-03-03T08:28:00;7.8;;7.7;7.2;;;;;;
67700;SPS30;55380;54.156;18.708;2023-03-03T08:30:00;7.8;;7.7;7.2;;;;;;
67700;SPS30;55380;54.156;18.708;2023-03-03T08:32:00;7.9;;7.8;7.2;;;;;;
67700;SPS30;55380;54.156;18.708;2023-03-03T08:34:00;7.9;;7.8;7.4;;;;;;
67700;SPS30;55380;54.156;18.708;2023-03-03T08:36:00;9.9;;9.9;9.4;;;;;;
67700;SPS30;55380;54.156;18.708;2023-03-03T08:38:00;9.1;;9.1;8.6;;;;;;
67700;SPS30;55380;54.156;18.708;2023-03-03T08:40:00;7.9;;7.9;7.5;;;;;;
67700;SPS30;55380;54.156;18.708;2023-03-03T08:42:00;7.9;;7.9;7.4;;;;;;
67700;SPS30;55380;54.156;18.708;2023-03-03T08:44:00;8.6;;8.5;8.1;;;;;;
67700;SPS30;55380;54.156;18.708;2023-03-03T08:46:01;7.8;;7.8;7.3;;;;;;
67700;SPS30;55380;54.156;18.708;2023-03-03T08:48:00;7.9;;7.9;7.4;;;;;;
67700;SPS30;55380;54.156;18.708;2023-03-03T08:50:00;8.1;;8.0;7.6;;;;;;
67700;SPS30;55380;54.156;18.708;2023-03-03T08:52:00;8.9;;8.8;8.3;;;;;;
67700;SPS30;55380;54.156;18.708;2023-03-03T08:54:00;8.2;;8.1;7.6;;;;;;
67700;SPS30;55380;54.156;18.708;2023-03-03T08:56:00;8.1;;8.0;7.6;;;;;;
67700;SPS30;55380;54.156;18.708;2023-03-03T08:58:00;8.1;;8.1;7.6;;;;;;
67700;SPS30;55380;54.156;18.708;2023-03-03T09:00:00;8.7;;8.6;8.1;;;;;;
67700;SPS30;55380;54.156;18.708;2023-03-03T09:02:00;8.8;;8.8;8.3;;;;;;
67700;SPS30;55380;54.156;18.708;2023-03-03T09:04:00;7.8;;7.8;7.4;;;;;;
67700;SPS30;55380;54.156;18.708;2023-03-03T09:06:00;8.3;;8.2;7.8;;;;;;
67700;SPS30;55380;54.156;18.708;2023-03-03T09:08:01;8.8;;8.8;8.3;;;;;;
67700;SPS30;55380;54.156;18.708;2023-03-03T09:10:00;8.4;;8.4;7.9;;;;;;
67700;SPS30;55380;54.156;18.708;2023-03-03T09:12:04;9.1;;9.1;8.5;;;;;;
67700;SPS30;55380;54.156;18.708;2023-03-03T09:14:03;10.3;;10.3;9.7;;;;;;
67700;SPS30;55380;54.156;18.708;2023-03-03T09:16:00;10.5;;10.5;10.0;;;;;;
67700;SPS30;55380;54.156;18.708;2023-03-03T09:18:04;10.1;;10.1;9.6;;;;;;
67700;SPS30;55380;54.156;18.708;2023-03-03T09:20:01;9.2;;9.1;8.6;;;;;;
67700;SPS30;55380;54.156;18.708;2023-03-03T09:22:01;9.2;;9.2;8.7;;;;;;
67700;SPS30;55380;54.156;18.708;2023-03-03T09:24:00;8.6;;8.6;8.1;;;;;;
67700;SPS30;55380;54.156;18.708;2023-03-03T09:28:01;9.0;;8.9;8.4;;;;;;
67700;SPS30;55380;54.156;18.708;2023-03-03T09:30:00;8.7;;8.6;8.1;;;;;;
67700;SPS30;55380;54.156;18.708;2023-03-03T09:32:01;9.1;;9.0;8.5;;;;;;
67700;SPS30;55380;54.156;18.708;2023-03-03T09:34:00;9.0;;8.9;8.4;;;;;;
67700;SPS30;55380;54.156;18.708;2023-03-03T09:36:03;9.1;;9.1;8.5;;;;;;
67700;SPS30;55380;54.156;18.708;2023-03-03T09:38:00;8.8;;8.7;8.2;;;;;;
67700;SPS30;55380;54.156;18.708;2023-03-03T09:40:00;8.6;;8.5;8.0;;;;;;
67700;SPS30;55380;54.156;18.708;2023-03-03T09:42:08;10.3;;10.2;9.7;;;;;;
67700;SPS30;55380;54.156;18.708;2023-03-03T09:44:04;10.0;;10.0;9.5;;;;;;
67700;SPS30;55380;54.156;18.708;2023-03-03T09:46:01;11.1;;11.1;10.5;;;;;;
67700;SPS30;55380;54.156;18.708;2023-03-03T09:48:04;8.0;;8.0;7.6;;;;;;
67700;SPS30;55380;54.156;18.708;2023-03-03T09:50:02;8.2;;8.2;7.7;;;;;;
67700;SPS30;55380;54.156;18.708;2023-03-03T09:52:06;8.7;;8.6;8.0;;;;;;
67700;SPS30;55380;54.156;18.708;2023-03-03T09:54:07;8.1;;8.1;7.6;;;;;;
67700;SPS30;55380;54.156;18.708;2023-03-03T09:56:01;7.2;;7.2;6.8;;;;;;
67700;SPS30;55380;54.156;18.708;2023-03-03T09:58:04;7.8;;7.8;7.4;;;;;;
67700;SPS30;55380;54.156;18.708;2023-03-03T10:00:09;8.2;;8.1;7.6;;;;;;
67700;SPS30;55380;54.156;18.708;2023-03-03T10:02:05;8.3;;8.2;7.7;;;;;;
67700;SPS30;55380;54.156;18.708;2023-03-03T10:04:05;8.0;;8.0;7.5;;;;;;
67700;SPS30;55380;54.156;18.708;2023-03-03T10:06:01;7.3;;7.2;6.8;;;;;;
67700;SPS30;55380;54.156;18.708;2023-03-03T10:08:02;7.5;;7.5;7.0;;;;;;
67700;SPS30;55380;54.156;18.708;2023-03-03T10:10:02;7.3;;7.2;6.8;;;;;;
67700;SPS30;55380;54.156;18.708;2023-03-03T10:12:02;6.9;;6.9;6.6;;;;;;
67700;SPS30;55380;54.156;18.708;2023-03-03T10:14:08;6.9;;6.9;6.5;;;;;;
67700;SPS30;55380;54.156;18.708;2023-03-03T10:16:08;6.8;;6.8;6.4;;;;;;
67700;SPS30;55380;54.156;18.708;2023-03-03T10:18:01;7.0;;7.0;6.6;;;;;;
67700;SPS30;55380;54.156;18.708;2023-03-03T10:20:04;7.0;;7.0;6.6;;;;;;
67700;SPS30;55380;54.156;18.708;2023-03-03T10:22:02;7.2;;7.1;6.7;;;;;;
67700;SPS30;55380;54.156;18.708;2023-03-03T10:24:01;7.4;;7.4;7.0;;;;;;
67700;SPS30;55380;54.156;18.708;2023-03-03T10:26:03;7.3;;7.3;6.9;;;;;;
67700;SPS30;55380;54.156;18.708;2023-03-03T10:28:05;7.7;;7.7;7.3;;;;;;
67700;SPS30;55380;54.156;18.708;2023-03-03T10:30:02;7.0;;7.0;6.6;;;;;;
67700;SPS30;55380;54.156;18.708;2023-03-03T10:32:04;6.9;;6.9;6.5;;;;;;
67700;SPS30;55380;54.156;18.708;2023-03-03T10:34:03;6.6;;6.6;6.2;;;;;;
67700;SPS30;55380;54.156;18.708;2023-03-03T10:36:05;6.8;;6.7;6.3;;;;;;
67700;SPS30;55380;54.156;18.708;2023-03-03T10:38:05;7.1;;7.0;6.6;;;;;;
67700;SPS30;55380;54.156;18.708;2023-03-03T10:40:02;6.3;;6.3;6.0;;;;;;
67700;SPS30;55380;54.156;18.708;2023-03-03T10:42:05;6.2;;6.2;5.8;;;;;;
67700;SPS30;55380;54.156;18.708;2023-03-03T10:44:07;5.8;;5.8;5.5;;;;;;
67700;SPS30;55380;54.156;18.708;2023-03-03T10:46:03;6.3;;6.3;6.0;;;;;;
67700;SPS30;55380;54.156;18.708;2023-03-03T10:48:06;6.2;;6.2;5.9;;;;;;
67700;SPS30;55380;54.156;18.708;2023-03-03T10:50:02;6.5;;6.5;6.2;;;;;;
67700;SPS30;55380;54.156;18.708;2023-03-03T10:52:04;6.3;;6.3;5.9;;;;;;
67700;SPS30;55380;54.156;18.708;2023-03-03T10:54:04;6.2;;6.2;5.9;;;;;;
67700;SPS30;55380;54.156;18.708;2023-03-03T10:56:06;7.5;;7.4;6.9;;;;;;
67700;SPS30;55380;54.156;18.708;2023-03-03T10:58:05;6.5;;6.4;6.0;;;;;;
67700;SPS30;55380;54.156;18.708;2023-03-03T11:00:02;6.6;;6.5;6.1;;;;;;
67700;SPS30;55380;54.156;18.708;2023-03-03T11:02:02;7.2;;7.1;6.6;;;;;;
67700;SPS30;55380;54.156;18.708;2023-03-03T11:04:03;6.9;;6.8;6.4;;;;;;
67700;SPS30;55380;54.156;18.708;2023-03-03T11:06:01;6.5;;6.4;6.0;;;;;;
67700;SPS30;55380;54.156;18.708;2023-03-03T11:08:00;6.5;;6.5;6.1;;;;;;
67700;SPS30;55380;54.156;18.708;2023-03-03T11:10:03;6.6;;6.6;6.2;;;;;;
67700;SPS30;55380;54.156;18.708;2023-03-03T11:12:02;5.8;;5.8;5.4;;;;;;